sensor_id;sensor_type;location;lat;lon;timestamp;temperature;humidity
21267;DHT22;10791;53.108;18.326;2022-07-29T00:04:37;13.60;99.90
21267;DHT22;10791;53.108;18.326;2022-07-29T00:09:41;13.60;99.90
21267;DHT22;10791;53.108;18.326;2022-07-29T00:14:54;13.50;99.90
21267;DHT22;10791;53.108;18.326;2022-07-29T00:19:58;13.50;99.90
21267;DHT22;10791;53.108;18.326;2022-07-29T00:25:01;13.40;99.90
21267;DHT22;10791;53.108;18.326;2022-07-29T00:30:05;13.40;99.90
21267;DHT22;10791;53.108;18.326;2022-07-29T00:35:09;13.40;99.90
21267;DHT22;10791;53.108;18.326;2022-07-29T00:40:31;13.40;99.90
21267;DHT22;10791;53.108;18.326;2022-07-29T00:45:35;13.30;99.90
21267;DHT22;10791;53.108;18.326;2022-07-29T00:50:38;13.30;99.90
21267;DHT22;10791;53.108;18.326;2022-07-29T00:55:42;13.30;99.90
21267;DHT22;10791;53.108;18.326;2022-07-29T01:00:45;13.30;99.90
21267;DHT22;10791;53.108;18.326;2022-07-29T01:05:48;13.20;99.90
21267;DHT22;10791;53.108;18.326;2022-07-29T01:10:54;13.20;99.90
21267;DHT22;10791;53.108;18.326;2022-07-29T01:16:03;13.10;99.90
21267;DHT22;10791;53.108;18.326;2022-07-29T01:32:17;13.00;99.90
21267;DHT22;10791;53.108;18.326;2022-07-29T01:37:48;12.90;99.90
21267;DHT22;10791;53.108;18.326;2022-07-29T01:42:55;12.90;99.90
21267;DHT22;10791;53.108;18.326;2022-07-29T01:48:16;12.80;99.90
21267;DHT22;10791;53.108;18.326;2022-07-29T01:53:29;12.80;99.90
21267;DHT22;10791;53.108;18.326;2022-07-29T01:58:41;12.70;99.90
21267;DHT22;10791;53.108;18.326;2022-07-29T02:03:45;12.70;99.90
21267;DHT22;10791;53.108;18.326;2022-07-29T02:08:51;12.60;99.90
21267;DHT22;10791;53.108;18.326;2022-07-29T02:13:56;12.60;99.90
21267;DHT22;10791;53.108;18.326;2022-07-29T02:19:02;12.60;99.90
21267;DHT22;10791;53.108;18.326;2022-07-29T02:24:06;12.50;99.90
21267;DHT22;10791;53.108;18.326;2022-07-29T02:29:12;12.50;99.90
21267;DHT22;10791;53.108;18.326;2022-07-29T02:34:17;12.50;99.90
21267;DHT22;10791;53.108;18.326;2022-07-29T02:39:24;12.40;99.90
21267;DHT22;10791;53.108;18.326;2022-07-29T02:44:28;12.40;99.90
21267;DHT22;10791;53.108;18.326;2022-07-29T02:49:38;12.40;99.90
21267;DHT22;10791;53.108;18.326;2022-07-29T02:54:55;12.40;99.90
21267;DHT22;10791;53.108;18.326;2022-07-29T03:00:05;12.30;99.90
21267;DHT22;10791;53.108;18.326;2022-07-29T03:05:13;12.40;99.90
21267;DHT22;10791;53.108;18.326;2022-07-29T03:10:18;12.40;99.90
21267;DHT22;10791;53.108;18.326;2022-07-29T03:15:22;12.30;99.90
21267;DHT22;10791;53.108;18.326;2022-07-29T03:20:26;12.30;99.90
21267;DHT22;10791;53.108;18.326;2022-07-29T03:25:29;12.40;99.90
21267;DHT22;10791;53.108;18.326;2022-07-29T03:30:33;12.40;99.90
21267;DHT22;10791;53.108;18.326;2022-07-29T03:35:36;12.50;99.90
21267;DHT22;10791;53.108;18.326;2022-07-29T03:40:46;12.60;99.90
21267;DHT22;10791;53.108;18.326;2022-07-29T03:45:53;12.60;99.90
21267;DHT22;10791;53.108;18.326;2022-07-29T03:50:57;12.70;99.90
21267;DHT22;10791;53.108;18.326;2022-07-29T03:56:02;12.90;99.90
21267;DHT22;10791;53.108;18.326;2022-07-29T04:01:06;13.00;99.90
21267;DHT22;10791;53.108;18.326;2022-07-29T04:06:09;13.10;99.90
21267;DHT22;10791;53.108;18.326;2022-07-29T04:11:13;13.20;99.90
21267;DHT22;10791;53.108;18.326;2022-07-29T04:16:16;13.20;99.90
21267;DHT22;10791;53.108;18.326;2022-07-29T04:21:20;13.20;99.90
21267;DHT22;10791;53.108;18.326;2022-07-29T04:26:23;13.30;99.90
21267;DHT22;10791;53.108;18.326;2022-07-29T04:31:27;13.40;99.90
21267;DHT22;10791;53.108;18.326;2022-07-29T04:36:30;13.60;99.90
21267;DHT22;10791;53.108;18.326;2022-07-29T04:41:34;13.80;99.90
21267;DHT22;10791;53.108;18.326;2022-07-29T04:46:37;14.00;99.90
21267;DHT22;10791;53.108;18.326;2022-07-29T04:51:40;14.40;99.90
21267;DHT22;10791;53.108;18.326;2022-07-29T04:56:43;15.00;99.90
21267;DHT22;10791;53.108;18.326;2022-07-29T05:01:47;15.50;99.90
21267;DHT22;10791;53.108;18.326;2022-07-29T05:06:50;15.80;99.90
21267;DHT22;10791;53.108;18.326;2022-07-29T05:11:54;15.90;99.90
21267;DHT22;10791;53.108;18.326;2022-07-29T05:16:57;15.90;99.90
21267;DHT22;10791;53.108;18.326;2022-07-29T05:22:00;16.00;99.90
21267;DHT22;10791;53.108;18.326;2022-07-29T05:27:03;16.10;99.90
21267;DHT22;10791;53.108;18.326;2022-07-29T05:32:07;16.20;99.90
21267;DHT22;10791;53.108;18.326;2022-07-29T05:37:11;16.30;99.90
21267;DHT22;10791;53.108;18.326;2022-07-29T05:42:16;16.50;99.90
21267;DHT22;10791;53.108;18.326;2022-07-29T05:47:19;16.60;99.90
21267;DHT22;10791;53.108;18.326;2022-07-29T05:52:23;16.90;99.90
21267;DHT22;10791;53.108;18.326;2022-07-29T05:57:26;17.30;99.90
21267;DHT22;10791;53.108;18.326;2022-07-29T06:02:30;17.60;99.90
21267;DHT22;10791;53.108;18.326;2022-07-29T06:07:33;17.90;99.90
21267;DHT22;10791;53.108;18.326;2022-07-29T06:12:38;18.20;99.90
21267;DHT22;10791;53.108;18.326;2022-07-29T06:17:43;18.50;99.90
21267;DHT22;10791;53.108;18.326;2022-07-29T06:23:08;18.80;99.90
21267;DHT22;10791;53.108;18.326;2022-07-29T06:28:12;19.00;99.90
21267;DHT22;10791;53.108;18.326;2022-07-29T06:33:17;19.20;99.90
21267;DHT22;10791;53.108;18.326;2022-07-29T06:38:21;19.60;99.90
21267;DHT22;10791;53.108;18.326;2022-07-29T06:43:38;19.60;99.90
21267;DHT22;10791;53.108;18.326;2022-07-29T06:48:52;19.80;99.90
21267;DHT22;10791;53.108;18.326;2022-07-29T06:53:56;20.10;99.90
21267;DHT22;10791;53.108;18.326;2022-07-29T06:59:05;20.50;99.90
21267;DHT22;10791;53.108;18.326;2022-07-29T07:04:09;20.60;99.90
21267;DHT22;10791;53.108;18.326;2022-07-29T07:09:13;20.80;99.90
21267;DHT22;10791;53.108;18.326;2022-07-29T07:14:16;21.20;99.90
21267;DHT22;10791;53.108;18.326;2022-07-29T07:19:20;21.40;99.90
21267;DHT22;10791;53.108;18.326;2022-07-29T07:24:23;21.60;99.90
21267;DHT22;10791;53.108;18.326;2022-07-29T07:29:26;21.90;99.90
21267;DHT22;10791;53.108;18.326;2022-07-29T07:34:30;22.20;99.90
21267;DHT22;10791;53.108;18.326;2022-07-29T07:39:34;22.30;99.90
21267;DHT22;10791;53.108;18.326;2022-07-29T07:44:37;22.40;99.90
21267;DHT22;10791;53.108;18.326;2022-07-29T07:50:00;22.80;99.90
21267;DHT22;10791;53.108;18.326;2022-07-29T07:55:04;22.80;99.90
21267;DHT22;10791;53.108;18.326;2022-07-29T08:00:08;22.90;99.90
21267;DHT22;10791;53.108;18.326;2022-07-29T08:05:12;23.00;99.90
21267;DHT22;10791;53.108;18.326;2022-07-29T08:10:20;23.20;99.90
21267;DHT22;10791;53.108;18.326;2022-07-29T08:15:41;23.20;99.90
21267;DHT22;10791;53.108;18.326;2022-07-29T08:20:45;23.20;99.90
21267;DHT22;10791;53.108;18.326;2022-07-29T08:25:49;23.30;99.90
21267;DHT22;10791;53.108;18.326;2022-07-29T08:30:52;23.60;98.70
21267;DHT22;10791;53.108;18.326;2022-07-29T08:35:56;24.00;97.60
21267;DHT22;10791;53.108;18.326;2022-07-29T08:41:02;24.10;94.20
21267;DHT22;10791;53.108;18.326;2022-07-29T08:46:06;24.40;94.70
21267;DHT22;10791;53.108;18.326;2022-07-29T08:51:22;24.80;91.10
21267;DHT22;10791;53.108;18.326;2022-07-29T08:56:27;24.70;88.60
21267;DHT22;10791;53.108;18.326;2022-07-29T09:01:33;24.90;90.00
21267;DHT22;10791;53.108;18.326;2022-07-29T09:06:49;25.30;87.60
21267;DHT22;10791;53.108;18.326;2022-07-29T09:11:54;25.30;80.70
21267;DHT22;10791;53.108;18.326;2022-07-29T09:16:58;25.20;80.50
21267;DHT22;10791;53.108;18.326;2022-07-29T09:22:05;25.00;78.50
21267;DHT22;10791;53.108;18.326;2022-07-29T09:27:29;24.80;74.10
21267;DHT22;10791;53.108;18.326;2022-07-29T09:32:33;24.70;70.60
21267;DHT22;10791;53.108;18.326;2022-07-29T09:37:56;24.40;75.70
21267;DHT22;10791;53.108;18.326;2022-07-29T09:43:10;24.30;77.70
21267;DHT22;10791;53.108;18.326;2022-07-29T09:48:15;24.60;75.70
21267;DHT22;10791;53.108;18.326;2022-07-29T09:58:36;24.70;70.50
21267;DHT22;10791;53.108;18.326;2022-07-29T10:03:53;24.50;70.30
21267;DHT22;10791;53.108;18.326;2022-07-29T10:09:10;24.50;68.50
21267;DHT22;10791;53.108;18.326;2022-07-29T10:14:14;24.60;70.50
21267;DHT22;10791;53.108;18.326;2022-07-29T10:19:18;24.60;69.60
21267;DHT22;10791;53.108;18.326;2022-07-29T10:24:21;24.80;70.50
21267;DHT22;10791;53.108;18.326;2022-07-29T10:29:25;24.60;69.70
21267;DHT22;10791;53.108;18.326;2022-07-29T10:40:04;24.80;70.30
21267;DHT22;10791;53.108;18.326;2022-07-29T10:45:30;24.70;69.70
21267;DHT22;10791;53.108;18.326;2022-07-29T10:51:01;24.80;69.20
21267;DHT22;10791;53.108;18.326;2022-07-29T10:56:26;25.00;65.70
21267;DHT22;10791;53.108;18.326;2022-07-29T11:01:30;24.90;65.00
21267;DHT22;10791;53.108;18.326;2022-07-29T11:28:27;24.80;66.20
21267;DHT22;10791;53.108;18.326;2022-07-29T11:33:33;24.60;67.10
21267;DHT22;10791;53.108;18.326;2022-07-29T11:39:25;24.60;66.10
21267;DHT22;10791;53.108;18.326;2022-07-29T11:44:59;24.60;66.00
21267;DHT22;10791;53.108;18.326;2022-07-29T11:55:40;24.80;64.50
21267;DHT22;10791;53.108;18.326;2022-07-29T12:00:53;25.00;63.70
21267;DHT22;10791;53.108;18.326;2022-07-29T12:05:57;25.10;62.40
21267;DHT22;10791;53.108;18.326;2022-07-29T12:11:01;24.90;62.30
21267;DHT22;10791;53.108;18.326;2022-07-29T12:16:05;24.80;61.70
21267;DHT22;10791;53.108;18.326;2022-07-29T12:21:08;24.90;64.00
21267;DHT22;10791;53.108;18.326;2022-07-29T12:26:13;25.20;63.60
21267;DHT22;10791;53.108;18.326;2022-07-29T12:31:27;25.50;62.40
21267;DHT22;10791;53.108;18.326;2022-07-29T12:36:45;25.30;61.70
21267;DHT22;10791;53.108;18.326;2022-07-29T12:41:48;25.30;63.30
21267;DHT22;10791;53.108;18.326;2022-07-29T12:47:10;25.60;63.00
21267;DHT22;10791;53.108;18.326;2022-07-29T12:52:34;25.80;62.20
21267;DHT22;10791;53.108;18.326;2022-07-29T12:57:50;26.00;60.00
21267;DHT22;10791;53.108;18.326;2022-07-29T13:02:57;25.70;61.50
21267;DHT22;10791;53.108;18.326;2022-07-29T13:08:30;25.60;59.00
21267;DHT22;10791;53.108;18.326;2022-07-29T13:13:33;25.50;60.90
21267;DHT22;10791;53.108;18.326;2022-07-29T13:18:36;26.00;59.90
21267;DHT22;10791;53.108;18.326;2022-07-29T13:23:39;26.60;58.90
21267;DHT22;10791;53.108;18.326;2022-07-29T13:28:42;26.70;57.80
21267;DHT22;10791;53.108;18.326;2022-07-29T13:33:46;26.30;57.20
21267;DHT22;10791;53.108;18.326;2022-07-29T13:38:50;26.20;57.10
21267;DHT22;10791;53.108;18.326;2022-07-29T13:43:54;26.20;56.10
21267;DHT22;10791;53.108;18.326;2022-07-29T13:48:57;26.40;58.60
21267;DHT22;10791;53.108;18.326;2022-07-29T13:54:00;26.20;57.90
21267;DHT22;10791;53.108;18.326;2022-07-29T13:59:04;26.40;57.10
21267;DHT22;10791;53.108;18.326;2022-07-29T14:04:07;26.10;54.80
21267;DHT22;10791;53.108;18.326;2022-07-29T14:09:13;26.40;56.20
21267;DHT22;10791;53.108;18.326;2022-07-29T14:14:17;27.10;55.10
21267;DHT22;10791;53.108;18.326;2022-07-29T14:19:20;26.90;54.80
21267;DHT22;10791;53.108;18.326;2022-07-29T14:24:25;27.20;56.40
21267;DHT22;10791;53.108;18.326;2022-07-29T14:29:28;27.20;53.90
21267;DHT22;10791;53.108;18.326;2022-07-29T14:34:39;26.50;55.90
21267;DHT22;10791;53.108;18.326;2022-07-29T14:39:42;26.30;55.90
21267;DHT22;10791;53.108;18.326;2022-07-29T14:44:45;26.50;54.30
21267;DHT22;10791;53.108;18.326;2022-07-29T14:49:50;26.50;53.30
21267;DHT22;10791;53.108;18.326;2022-07-29T14:54:53;26.40;53.90
21267;DHT22;10791;53.108;18.326;2022-07-29T14:59:56;26.60;54.90
21267;DHT22;10791;53.108;18.326;2022-07-29T15:05:00;27.10;55.10
21267;DHT22;10791;53.108;18.326;2022-07-29T15:10:03;27.50;55.50
21267;DHT22;10791;53.108;18.326;2022-07-29T15:15:09;27.60;52.60
21267;DHT22;10791;53.108;18.326;2022-07-29T15:20:13;27.10;52.00
21267;DHT22;10791;53.108;18.326;2022-07-29T15:25:16;26.80;53.20
21267;DHT22;10791;53.108;18.326;2022-07-29T15:30:20;27.10;53.60
21267;DHT22;10791;53.108;18.326;2022-07-29T15:35:38;27.10;53.50
21267;DHT22;10791;53.108;18.326;2022-07-29T15:40:42;26.80;54.20
21267;DHT22;10791;53.108;18.326;2022-07-29T15:45:46;26.20;55.30
21267;DHT22;10791;53.108;18.326;2022-07-29T15:51:08;26.50;54.50
21267;DHT22;10791;53.108;18.326;2022-07-29T15:56:11;26.70;54.80
21267;DHT22;10791;53.108;18.326;2022-07-29T16:01:16;26.60;54.60
21267;DHT22;10791;53.108;18.326;2022-07-29T16:06:20;26.10;55.00
21267;DHT22;10791;53.108;18.326;2022-07-29T16:11:24;25.90;55.30
21267;DHT22;10791;53.108;18.326;2022-07-29T16:16:27;25.90;52.70
21267;DHT22;10791;53.108;18.326;2022-07-29T16:21:31;26.20;53.00
21267;DHT22;10791;53.108;18.326;2022-07-29T16:26:35;26.00;53.80
21267;DHT22;10791;53.108;18.326;2022-07-29T16:31:39;26.00;54.70
21267;DHT22;10791;53.108;18.326;2022-07-29T16:36:43;26.50;54.30
21267;DHT22;10791;53.108;18.326;2022-07-29T16:41:51;26.80;52.00
21267;DHT22;10791;53.108;18.326;2022-07-29T16:47:03;26.70;52.50
21267;DHT22;10791;53.108;18.326;2022-07-29T16:52:11;26.60;53.00
21267;DHT22;10791;53.108;18.326;2022-07-29T16:57:14;26.40;52.90
21267;DHT22;10791;53.108;18.326;2022-07-29T17:02:18;25.80;54.40
21267;DHT22;10791;53.108;18.326;2022-07-29T17:07:22;25.10;55.70
21267;DHT22;10791;53.108;18.326;2022-07-29T17:12:28;24.70;57.30
21267;DHT22;10791;53.108;18.326;2022-07-29T17:17:38;24.40;58.00
21267;DHT22;10791;53.108;18.326;2022-07-29T17:23:04;24.10;58.90
21267;DHT22;10791;53.108;18.326;2022-07-29T17:28:08;23.70;60.00
21267;DHT22;10791;53.108;18.326;2022-07-29T17:33:18;23.50;61.20
21267;DHT22;10791;53.108;18.326;2022-07-29T17:38:38;23.30;61.50
21267;DHT22;10791;53.108;18.326;2022-07-29T17:44:03;23.10;64.40
21267;DHT22;10791;53.108;18.326;2022-07-29T17:49:06;22.90;66.30
21267;DHT22;10791;53.108;18.326;2022-07-29T17:54:09;22.60;67.60
21267;DHT22;10791;53.108;18.326;2022-07-29T17:59:13;22.40;68.10
21267;DHT22;10791;53.108;18.326;2022-07-29T18:04:16;22.20;69.20
21267;DHT22;10791;53.108;18.326;2022-07-29T18:09:22;22.00;69.80
21267;DHT22;10791;53.108;18.326;2022-07-29T18:14:27;21.80;70.50
21267;DHT22;10791;53.108;18.326;2022-07-29T18:19:30;21.60;70.90
21267;DHT22;10791;53.108;18.326;2022-07-29T18:24:33;21.50;71.70
21267;DHT22;10791;53.108;18.326;2022-07-29T18:29:37;21.40;72.00
21267;DHT22;10791;53.108;18.326;2022-07-29T18:34:42;21.30;72.80
21267;DHT22;10791;53.108;18.326;2022-07-29T18:39:46;21.20;73.40
21267;DHT22;10791;53.108;18.326;2022-07-29T18:44:50;20.90;75.20
21267;DHT22;10791;53.108;18.326;2022-07-29T18:49:53;20.60;75.50
21267;DHT22;10791;53.108;18.326;2022-07-29T18:54:56;20.40;76.30
21267;DHT22;10791;53.108;18.326;2022-07-29T19:00:00;20.20;76.60
21267;DHT22;10791;53.108;18.326;2022-07-29T19:05:08;20.00;77.30
21267;DHT22;10791;53.108;18.326;2022-07-29T19:10:12;19.90;77.70
21267;DHT22;10791;53.108;18.326;2022-07-29T19:15:15;19.80;77.90
21267;DHT22;10791;53.108;18.326;2022-07-29T19:20:22;19.70;78.40
21267;DHT22;10791;53.108;18.326;2022-07-29T19:25:35;19.50;79.10
21267;DHT22;10791;53.108;18.326;2022-07-29T19:30:58;19.40;80.10
21267;DHT22;10791;53.108;18.326;2022-07-29T19:36:07;19.20;81.00
21267;DHT22;10791;53.108;18.326;2022-07-29T19:41:15;19.10;82.00
21267;DHT22;10791;53.108;18.326;2022-07-29T19:46:20;18.90;84.00
21267;DHT22;10791;53.108;18.326;2022-07-29T19:51:26;18.80;87.90
21267;DHT22;10791;53.108;18.326;2022-07-29T19:56:30;18.70;91.00
21267;DHT22;10791;53.108;18.326;2022-07-29T20:01:36;18.40;94.20
21267;DHT22;10791;53.108;18.326;2022-07-29T20:06:41;18.50;98.10
21267;DHT22;10791;53.108;18.326;2022-07-29T20:11:57;18.50;99.90
21267;DHT22;10791;53.108;18.326;2022-07-29T20:17:04;18.50;99.90
21267;DHT22;10791;53.108;18.326;2022-07-29T20:22:09;18.50;99.90
21267;DHT22;10791;53.108;18.326;2022-07-29T20:27:24;18.50;99.90
21267;DHT22;10791;53.108;18.326;2022-07-29T20:32:34;18.50;99.90
21267;DHT22;10791;53.108;18.326;2022-07-29T20:37:40;18.40;99.90
21267;DHT22;10791;53.108;18.326;2022-07-29T20:42:59;18.20;99.90
21267;DHT22;10791;53.108;18.326;2022-07-29T20:48:14;18.10;99.90
21267;DHT22;10791;53.108;18.326;2022-07-29T20:53:26;18.00;99.90
21267;DHT22;10791;53.108;18.326;2022-07-29T20:58:34;17.80;99.90
21267;DHT22;10791;53.108;18.326;2022-07-29T21:04:02;17.80;99.90
21267;DHT22;10791;53.108;18.326;2022-07-29T21:09:18;17.70;99.90
21267;DHT22;10791;53.108;18.326;2022-07-29T21:14:25;17.50;99.90
21267;DHT22;10791;53.108;18.326;2022-07-29T21:19:51;17.40;99.90
21267;DHT22;10791;53.108;18.326;2022-07-29T21:25:14;17.30;99.90
21267;DHT22;10791;53.108;18.326;2022-07-29T21:30:32;17.20;99.90
21267;DHT22;10791;53.108;18.326;2022-07-29T21:35:41;17.10;99.90
21267;DHT22;10791;53.108;18.326;2022-07-29T21:41:14;17.00;99.90
21267;DHT22;10791;53.108;18.326;2022-07-29T21:46:20;16.90;99.90
21267;DHT22;10791;53.108;18.326;2022-07-29T21:51:27;16.80;99.90
21267;DHT22;10791;53.108;18.326;2022-07-29T21:56:40;16.70;99.90
21267;DHT22;10791;53.108;18.326;2022-07-29T22:01:52;16.60;99.90
21267;DHT22;10791;53.108;18.326;2022-07-29T22:07:06;16.50;99.90
21267;DHT22;10791;53.108;18.326;2022-07-29T22:12:09;16.40;99.90
21267;DHT22;10791;53.108;18.326;2022-07-29T22:17:13;16.20;99.90
21267;DHT22;10791;53.108;18.326;2022-07-29T22:22:24;16.10;99.90
21267;DHT22;10791;53.108;18.326;2022-07-29T22:27:27;16.00;99.90
21267;DHT22;10791;53.108;18.326;2022-07-29T22:32:35;15.90;99.90
21267;DHT22;10791;53.108;18.326;2022-07-29T22:38:16;15.70;99.90
21267;DHT22;10791;53.108;18.326;2022-07-29T22:43:40;15.50;99.90
21267;DHT22;10791;53.108;18.326;2022-07-29T22:48:44;15.60;99.90
21267;DHT22;10791;53.108;18.326;2022-07-29T22:53:47;15.50;99.90
21267;DHT22;10791;53.108;18.326;2022-07-29T22:58:51;15.40;99.90
21267;DHT22;10791;53.108;18.326;2022-07-29T23:03:57;15.20;99.90
21267;DHT22;10791;53.108;18.326;2022-07-29T23:09:00;15.10;99.90
21267;DHT22;10791;53.108;18.326;2022-07-29T23:14:04;15.00;99.90
21267;DHT22;10791;53.108;18.326;2022-07-29T23:19:10;15.00;99.90
21267;DHT22;10791;53.108;18.326;2022-07-29T23:24:14;14.90;99.90
21267;DHT22;10791;53.108;18.326;2022-07-29T23:29:18;14.90;99.90
21267;DHT22;10791;53.108;18.326;2022-07-29T23:34:21;14.80;99.90
21267;DHT22;10791;53.108;18.326;2022-07-29T23:39:25;14.70;99.90
21267;DHT22;10791;53.108;18.326;2022-07-29T23:44:28;14.70;99.90
21267;DHT22;10791;53.108;18.326;2022-07-29T23:49:32;14.60;99.90
21267;DHT22;10791;53.108;18.326;2022-07-29T23:54:35;14.50;99.90
21267;DHT22;10791;53.108;18.326;2022-07-29T23:59:38;14.40;99.90
